Time;durP1;ratioP1;P1;durP2;ratioP2;P2;SDS_P1;SDS_P2;PMS_P1;PMS_P2;Temp;Humidity;BMP_temperature;BMP_pressure;BME280_temperature;BME280_humidity;BME280_pressure;Samples;Min_cycle;Max_cycle;Signal;HPM_P1;HPM_P2
2023/10/25 00:02:16;;;;;;;5.27;2.90;;;14.80;99.30;;;;;;4950708;29;20506;-82
2023/10/25 00:04:41;;;;;;;2.80;2.60;;;14.80;99.60;;;;;;4967154;28;20608;-82
2023/10/25 00:07:08;;;;;;;3.20;2.90;;;14.80;99.30;;;;;;4931184;29;20463;-82
2023/10/25 00:09:34;;;;;;;2.97;2.37;;;14.80;99.30;;;;;;4941714;29;20666;-82
2023/10/25 00:12:05;;;;;;;4.43;2.93;;;14.70;99.30;;;;;;4923106;29;20456;-82
2023/10/25 00:14:35;;;;;;;7.17;2.90;;;14.70;99.20;;;;;;4954367;29;20899;-82
2023/10/25 00:17:03;;;;;;;5.83;2.97;;;14.70;99.20;;;;;;4954233;29;20428;-82
2023/10/25 00:19:29;;;;;;;3.13;2.70;;;14.70;99.20;;;;;;4946096;29;20464;-82
2023/10/25 00:21:57;;;;;;;3.90;2.33;;;14.70;99.20;;;;;;4946998;28;20449;-83
2023/10/25 00:24:26;;;;;;;2.83;2.60;;;14.70;99.20;;;;;;4955413;28;20768;-83
2023/10/25 00:26:57;;;;;;;2.70;2.50;;;14.70;99.20;;;;;;4923201;29;20447;-83
2023/10/25 00:29:23;;;;;;;3.40;3.03;;;14.70;99.10;;;;;;4918967;29;20499;-82
2023/10/25 00:31:49;;;;;;;3.07;2.67;;;14.70;99.20;;;;;;4949141;28;20469;-83
2023/10/25 00:34:17;;;;;;;5.00;2.80;;;14.70;99.20;;;;;;4938102;29;20425;-83
2023/10/25 00:36:45;;;;;;;5.07;2.73;;;14.70;99.20;;;;;;4938315;29;20429;-81
2023/10/25 00:39:13;;;;;;;2.97;2.67;;;14.70;99.20;;;;;;4946383;29;20802;-82
2023/10/25 00:41:39;;;;;;;3.03;2.73;;;14.60;99.10;;;;;;4954237;29;20569;-82
2023/10/25 00:44:07;;;;;;;2.70;2.50;;;14.60;99.10;;;;;;4954370;29;20526;-81
2023/10/25 00:46:36;;;;;;;3.80;3.07;;;14.60;99.10;;;;;;4969843;28;20431;-83
2023/10/25 00:49:09;;;;;;;3.20;3.00;;;14.60;99.10;;;;;;4945888;29;20485;-83
2023/10/25 00:51:35;;;;;;;2.80;2.60;;;14.60;99.10;;;;;;4939328;29;20446;-83
2023/10/25 00:54:04;;;;;;;3.13;2.70;;;14.60;99.10;;;;;;4930205;29;20462;-83
2023/10/25 00:56:34;;;;;;;3.77;3.43;;;14.60;99.00;;;;;;4937648;29;21187;-82
2023/10/25 00:59:03;;;;;;;3.43;2.70;;;14.60;99.10;;;;;;4953784;29;20486;-83
2023/10/25 01:01:29;;;;;;;3.37;2.97;;;14.60;99.00;;;;;;4954863;29;20427;-82
2023/10/25 01:03:58;;;;;;;3.67;2.90;;;14.60;99.00;;;;;;4945168;29;20992;-82
2023/10/25 01:06:26;;;;;;;2.90;2.53;;;14.60;99.00;;;;;;4953706;28;20434;-82
2023/10/25 01:08:54;;;;;;;4.03;2.90;;;14.60;99.00;;;;;;4953276;29;20211;-82
2023/10/25 01:11:23;;;;;;;2.97;2.70;;;14.60;99.00;;;;;;4953010;29;20511;-82
2023/10/25 01:13:48;;;;;;;3.47;2.83;;;14.60;99.00;;;;;;4952835;29;20427;-82
2023/10/25 01:16:19;;;;;;;4.10;3.17;;;14.60;99.00;;;;;;4945266;29;20547;-82
2023/10/25 01:18:45;;;;;;;2.93;2.60;;;14.60;98.90;;;;;;4952880;28;20994;-83
2023/10/25 01:21:16;;;;;;;2.97;2.77;;;14.60;98.90;;;;;;4937288;29;20423;-83
2023/10/25 01:23:42;;;;;;;3.30;3.00;;;14.60;99.00;;;;;;4953084;29;20458;-82
2023/10/25 01:26:08;;;;;;;3.67;2.90;;;14.50;98.90;;;;;;4945224;29;20532;-82
2023/10/25 01:28:34;;;;;;;3.00;2.80;;;14.50;98.90;;;;;;4953068;29;20481;-81
2023/10/25 01:31:01;;;;;;;4.57;3.33;;;14.50;98.90;;;;;;4953973;28;20534;-83
2023/10/25 01:33:27;;;;;;;5.33;2.83;;;14.50;98.90;;;;;;4937365;29;21243;-81
2023/10/25 01:35:53;;;;;;;3.30;3.00;;;14.50;98.90;;;;;;4952801;29;20459;-83
2023/10/25 01:38:21;;;;;;;5.80;3.00;;;14.50;98.90;;;;;;4937529;29;20762;-81
2023/10/25 01:40:47;;;;;;;3.13;2.80;;;14.50;98.90;;;;;;4954087;28;20508;-83
2023/10/25 01:43:14;;;;;;;2.90;2.70;;;14.50;98.90;;;;;;4953708;29;20463;-82
2023/10/25 01:45:44;;;;;;;3.20;2.70;;;14.50;98.90;;;;;;4962337;28;20440;-81
2023/10/25 01:48:10;;;;;;;3.20;2.90;;;14.50;98.90;;;;;;4954220;29;20481;-82
2023/10/25 01:50:37;;;;;;;3.77;2.90;;;14.50;98.80;;;;;;4972478;28;20470;-83
2023/10/25 01:53:03;;;;;;;3.10;2.90;;;14.50;99.20;;;;;;4954674;29;20821;-82
2023/10/25 01:55:32;;;;;;;3.97;2.70;;;14.50;98.80;;;;;;4936174;29;20451;-83
2023/10/25 01:58:02;;;;;;;4.37;2.90;;;14.50;98.80;;;;;;4941535;29;20438;-82
2023/10/25 02:00:28;;;;;;;3.17;2.90;;;14.50;98.80;;;;;;4961389;28;20472;-82
2023/10/25 02:02:56;;;;;;;3.07;2.87;;;14.50;98.80;;;;;;4945175;29;20833;-82
2023/10/25 02:05:24;;;;;;;3.93;3.10;;;14.50;98.80;;;;;;4967331;29;20250;-82
2023/10/25 02:07:50;;;;;;;3.73;3.43;;;14.40;98.70;;;;;;4958509;29;20466;-82
2023/10/25 02:10:18;;;;;;;3.40;3.10;;;14.40;98.70;;;;;;4955192;29;20974;-82
2023/10/25 02:12:44;;;;;;;3.87;3.30;;;14.40;98.80;;;;;;4960740;28;20225;-80
2023/10/25 02:15:10;;;;;;;3.43;2.90;;;14.40;98.70;;;;;;4957814;28;20426;-83
2023/10/25 02:17:36;;;;;;;2.90;2.70;;;14.40;98.80;;;;;;4941814;29;20467;-80
2023/10/25 02:20:09;;;;;;;3.50;3.10;;;14.40;98.80;;;;;;4946678;29;20465;-82
2023/10/25 02:22:36;;;;;;;3.60;2.53;;;14.40;98.70;;;;;;4973338;28;20456;-82
2023/10/25 02:25:03;;;;;;;4.43;3.43;;;14.40;98.80;;;;;;4928041;29;20975;-82
2023/10/25 02:27:30;;;;;;;3.53;2.90;;;14.40;98.80;;;;;;4953451;28;20768;-82
2023/10/25 02:29:56;;;;;;;3.00;2.80;;;14.40;98.80;;;;;;4943891;28;20466;-82
2023/10/25 02:32:28;;;;;;;4.00;3.67;;;14.40;98.70;;;;;;4956118;28;20549;-82
2023/10/25 02:34:59;;;;;;;3.50;3.20;;;14.30;98.70;;;;;;4922455;29;20443;-82
2023/10/25 02:37:25;;;;;;;3.37;3.00;;;14.40;98.70;;;;;;4952156;29;20467;-82
2023/10/25 02:39:51;;;;;;;3.20;2.70;;;14.40;98.70;;;;;;4952853;28;20521;-82
2023/10/25 02:42:17;;;;;;;6.70;3.20;;;14.40;98.70;;;;;;4967736;28;20218;-83
2023/10/25 02:44:43;;;;;;;4.93;3.27;;;14.30;98.70;;;;;;4919869;29;20195;-82
2023/10/25 02:47:11;;;;;;;4.77;3.17;;;14.30;98.70;;;;;;4905017;29;20199;-82
2023/10/25 02:49:37;;;;;;;6.10;3.07;;;14.40;98.70;;;;;;4951341;28;20223;-82
2023/10/25 02:52:05;;;;;;;3.13;2.83;;;14.30;98.60;;;;;;4951311;29;20438;-82
2023/10/25 02:54:31;;;;;;;3.47;3.17;;;14.30;98.70;;;;;;4951426;29;20503;-84
2023/10/25 02:57:01;;;;;;;3.77;3.17;;;14.30;98.70;;;;;;4951979;29;20436;-82
2023/10/25 02:59:32;;;;;;;6.30;3.30;;;14.30;98.70;;;;;;4935631;29;20539;-83
2023/10/25 03:02:00;;;;;;;3.43;3.23;;;14.30;98.70;;;;;;4920220;29;20935;-83
2023/10/25 03:04:26;;;;;;;4.63;3.83;;;14.30;98.60;;;;;;4952570;28;20853;-82
2023/10/25 03:06:52;;;;;;;3.90;3.60;;;14.30;98.60;;;;;;4951473;29;20823;-82
2023/10/25 03:09:23;;;;;;;4.07;3.77;;;14.30;98.60;;;;;;4935985;28;20757;-82
2023/10/25 03:11:51;;;;;;;5.43;3.50;;;14.30;98.60;;;;;;4951252;28;20542;-81
2023/10/25 03:14:20;;;;;;;3.60;3.07;;;14.20;98.60;;;;;;4936861;28;20442;-82
2023/10/25 03:16:46;;;;;;;5.00;3.60;;;14.20;98.60;;;;;;4964311;28;20435;-81
2023/10/25 03:19:12;;;;;;;6.40;3.47;;;14.20;98.60;;;;;;4951482;29;20426;-83
2023/10/25 03:21:40;;;;;;;3.40;3.13;;;14.20;98.50;;;;;;4952199;28;20446;-83
2023/10/25 03:24:08;;;;;;;3.77;3.47;;;14.20;98.60;;;;;;4952211;28;20494;-83
2023/10/25 03:26:36;;;;;;;3.47;3.20;;;14.20;98.60;;;;;;4931979;29;20486;-83
2023/10/25 03:29:03;;;;;;;4.03;3.70;;;14.20;98.60;;;;;;4948847;28;20503;-82
2023/10/25 03:31:29;;;;;;;3.70;3.40;;;14.30;98.60;;;;;;4926934;29;20502;-80
2023/10/25 03:33:55;;;;;;;3.70;2.90;;;14.20;98.60;;;;;;4941772;29;20446;-82
2023/10/25 03:36:26;;;;;;;3.83;3.50;;;14.20;98.50;;;;;;4948011;28;20458;-80
2023/10/25 03:38:54;;;;;;;3.03;2.83;;;14.20;98.50;;;;;;4951925;28;20319;-82
2023/10/25 03:41:20;;;;;;;3.77;3.47;;;14.20;98.50;;;;;;4950707;29;20462;-83
2023/10/25 03:43:48;;;;;;;3.50;3.20;;;14.20;98.50;;;;;;4950087;28;20567;-83
2023/10/25 03:46:18;;;;;;;3.50;3.20;;;14.20;98.50;;;;;;4952136;28;20214;-82
2023/10/25 03:48:49;;;;;;;3.60;3.40;;;14.20;98.50;;;;;;4934962;29;21174;-82
2023/10/25 03:51:17;;;;;;;2.70;2.50;;;14.20;98.50;;;;;;4950880;29;20518;-82
2023/10/25 03:53:47;;;;;;;2.97;2.67;;;14.20;98.50;;;;;;4931827;29;20511;-82
2023/10/25 03:56:13;;;;;;;3.10;2.80;;;14.20;98.50;;;;;;4951187;28;20437;-83
2023/10/25 03:58:42;;;;;;;3.47;3.03;;;14.20;98.50;;;;;;4951002;29;20424;-82
2023/10/25 04:01:08;;;;;;;2.90;2.70;;;14.20;98.50;;;;;;4950354;29;20440;-82
2023/10/25 04:03:34;;;;;;;4.60;2.90;;;14.10;98.50;;;;;;4966767;28;20534;-83
2023/10/25 04:06:00;;;;;;;2.73;2.50;;;14.10;98.50;;;;;;4951422;28;20455;-83
2023/10/25 04:08:28;;;;;;;3.00;2.80;;;14.10;98.50;;;;;;4934962;29;20486;-83
2023/10/25 04:11:02;;;;;;;3.30;2.67;;;14.10;98.50;;;;;;4951120;28;20450;-83
2023/10/25 04:13:28;;;;;;;3.17;2.87;;;14.10;98.50;;;;;;4951070;29;20745;-82
2023/10/25 04:15:58;;;;;;;3.30;2.80;;;14.10;98.50;;;;;;4958494;28;20524;-82
2023/10/25 04:18:25;;;;;;;3.87;2.97;;;14.20;98.50;;;;;;4950346;29;20447;-82
2023/10/25 04:20:52;;;;;;;2.37;2.27;;;14.20;98.50;;;;;;4950166;29;20419;-82
2023/10/25 04:23:18;;;;;;;5.10;2.63;;;14.10;98.50;;;;;;4950469;29;20452;-82
2023/10/25 04:25:46;;;;;;;3.20;2.90;;;14.10;98.50;;;;;;4950408;28;21037;-83
2023/10/25 04:28:16;;;;;;;2.90;2.70;;;14.10;98.50;;;;;;4966923;28;20442;-82
2023/10/25 04:30:47;;;;;;;3.37;2.50;;;14.10;98.50;;;;;;4950568;29;20811;-83
2023/10/25 04:33:17;;;;;;;2.63;2.43;;;14.10;98.50;;;;;;4935457;29;20424;-82
2023/10/25 04:35:49;;;;;;;3.33;3.03;;;14.10;98.50;;;;;;4966232;28;20462;-82
2023/10/25 04:38:17;;;;;;;2.70;2.50;;;14.10;98.50;;;;;;4960167;28;20465;-82
2023/10/25 04:40:43;;;;;;;3.10;2.80;;;14.10;98.50;;;;;;4951765;28;21189;-82
2023/10/25 04:43:09;;;;;;;4.17;2.67;;;14.10;98.50;;;;;;4942852;29;20461;-83
2023/10/25 04:45:37;;;;;;;3.53;3.03;;;14.10;98.50;;;;;;4967818;28;20441;-82
2023/10/25 04:48:06;;;;;;;4.23;2.93;;;14.10;98.50;;;;;;4934888;29;20227;-82
2023/10/25 04:50:34;;;;;;;2.97;2.67;;;14.10;98.50;;;;;;4951480;28;20435;-82
2023/10/25 04:53:05;;;;;;;3.40;3.03;;;14.00;98.50;;;;;;4948181;29;20423;-82
2023/10/25 04:55:36;;;;;;;5.70;2.97;;;14.10;98.50;;;;;;4948538;29;20425;-81
2023/10/25 04:58:03;;;;;;;2.83;2.53;;;14.10;98.80;;;;;;4955069;28;20427;-83
2023/10/25 05:00:32;;;;;;;2.93;2.70;;;14.10;98.50;;;;;;4954954;28;20456;-82
2023/10/25 05:03:00;;;;;;;4.07;3.17;;;14.00;98.40;;;;;;4953580;29;20423;-83
2023/10/25 05:05:26;;;;;;;3.10;2.80;;;14.00;98.40;;;;;;4929537;29;20484;-83
2023/10/25 05:07:52;;;;;;;3.10;2.90;;;14.00;98.50;;;;;;4954770;28;20427;-82
2023/10/25 05:10:19;;;;;;;3.17;2.73;;;14.00;98.40;;;;;;4954714;28;21001;-81
2023/10/25 05:12:47;;;;;;;2.67;2.47;;;14.00;98.40;;;;;;4937872;29;20760;-82
2023/10/25 05:15:17;;;;;;;3.40;3.10;;;14.00;98.80;;;;;;4953907;29;20994;-83
2023/10/25 05:17:44;;;;;;;4.00;2.53;;;14.00;98.50;;;;;;4953565;29;20446;-82
2023/10/25 05:20:14;;;;;;;3.03;2.80;;;14.00;98.50;;;;;;4946034;28;21272;-83
2023/10/25 05:22:42;;;;;;;3.80;2.90;;;14.00;98.50;;;;;;4969412;28;20509;-83
2023/10/25 05:25:12;;;;;;;3.83;2.70;;;14.00;98.50;;;;;;4954030;28;20525;-82
2023/10/25 05:27:38;;;;;;;3.43;2.50;;;14.00;98.40;;;;;;4941493;28;20438;-80
2023/10/25 05:30:09;;;;;;;3.50;3.00;;;14.00;98.40;;;;;;4952973;29;20482;-83
2023/10/25 05:32:36;;;;;;;4.77;2.80;;;14.00;98.40;;;;;;4954649;28;20477;-86
2023/10/25 05:35:05;;;;;;;4.23;2.90;;;14.00;98.40;;;;;;4935609;29;21032;-84
2023/10/25 05:37:32;;;;;;;3.10;2.47;;;14.00;98.40;;;;;;4935674;29;20978;-86
2023/10/25 05:40:00;;;;;;;2.47;2.27;;;14.00;98.40;;;;;;4921101;29;20467;-84
2023/10/25 05:42:31;;;;;;;2.83;2.57;;;14.00;98.40;;;;;;4936869;29;21285;-85
2023/10/25 05:44:57;;;;;;;3.60;2.70;;;14.00;98.40;;;;;;4952477;29;20446;-86
2023/10/25 05:47:24;;;;;;;3.00;2.30;;;14.00;98.40;;;;;;4953017;28;20434;-86
2023/10/25 05:49:53;;;;;;;3.27;2.97;;;14.00;98.40;;;;;;4952814;29;20221;-84
2023/10/25 05:52:20;;;;;;;4.47;2.80;;;14.00;98.40;;;;;;4952634;29;20534;-87
2023/10/25 05:54:47;;;;;;;5.60;3.30;;;14.00;98.40;;;;;;4943929;29;20477;-85
2023/10/25 05:57:13;;;;;;;3.70;2.57;;;13.90;98.40;;;;;;4945059;29;20829;-84
2023/10/25 05:59:42;;;;;;;2.53;2.33;;;13.90;98.40;;;;;;4952535;28;20458;-86
2023/10/25 06:02:08;;;;;;;2.70;2.50;;;13.90;98.40;;;;;;4951589;29;20490;-84
2023/10/25 06:04:36;;;;;;;2.60;2.20;;;13.90;98.40;;;;;;4936170;28;20442;-84
2023/10/25 06:07:03;;;;;;;2.60;2.40;;;13.90;98.40;;;;;;4951173;29;20459;-85
2023/10/25 06:09:29;;;;;;;4.70;2.40;;;13.90;98.30;;;;;;4922119;29;20574;-87
2023/10/25 06:11:55;;;;;;;2.43;2.23;;;13.90;98.30;;;;;;4950862;29;20450;-85
2023/10/25 06:14:22;;;;;;;3.30;2.17;;;13.90;98.30;;;;;;4952730;29;20423;-88
2023/10/25 06:16:50;;;;;;;2.20;2.00;;;13.90;98.30;;;;;;4953159;29;20443;-86
2023/10/25 06:19:16;;;;;;;2.93;2.50;;;13.90;98.40;;;;;;4952968;28;20464;-87
2023/10/25 06:21:42;;;;;;;3.17;2.33;;;13.90;98.40;;;;;;4958118;28;20510;-85
2023/10/25 06:24:08;;;;;;;2.43;2.23;;;13.90;98.40;;;;;;4949631;29;20222;-85
2023/10/25 06:26:36;;;;;;;2.70;2.30;;;13.90;98.40;;;;;;4972094;28;20919;-88
2023/10/25 06:29:02;;;;;;;2.90;2.30;;;13.90;98.40;;;;;;4955704;29;20488;-89
2023/10/25 06:31:30;;;;;;;2.33;2.13;;;13.90;98.40;;;;;;4958762;29;20431;-87
2023/10/25 06:33:56;;;;;;;2.90;2.67;;;13.90;98.30;;;;;;4959144;29;20491;-87
2023/10/25 06:36:22;;;;;;;2.10;2.00;;;13.90;98.30;;;;;;4979142;28;20462;-85
2023/10/25 06:38:48;;;;;;;2.63;2.43;;;13.90;98.40;;;;;;4942059;29;20857;-85
2023/10/25 06:41:18;;;;;;;2.60;2.40;;;13.90;98.40;;;;;;4954506;29;20434;-88
2023/10/25 06:43:45;;;;;;;4.50;2.73;;;13.90;98.40;;;;;;4920530;29;20470;-86
2023/10/25 06:46:11;;;;;;;2.50;2.20;;;13.90;98.40;;;;;;4951397;29;20437;-87
2023/10/25 06:48:38;;;;;;;2.27;2.07;;;13.90;98.40;;;;;;4951912;28;20526;-85
2023/10/25 06:51:07;;;;;;;4.00;2.50;;;13.80;98.40;;;;;;4925920;29;21416;-90
2023/10/25 06:53:37;;;;;;;3.40;2.50;;;13.80;98.40;;;;;;4954725;29;20431;-85
2023/10/25 06:56:04;;;;;;;2.20;2.00;;;13.80;98.30;;;;;;4935715;29;20750;-89
2023/10/25 06:58:30;;;;;;;5.73;2.20;;;13.80;98.40;;;;;;4954735;29;20465;-87
2023/10/25 07:01:01;;;;;;;2.27;2.10;;;13.80;98.40;;;;;;4958345;29;20768;-85
2023/10/25 07:03:36;;;;;;;4.00;2.60;;;13.80;98.40;;;;;;4953661;28;20470;-84
2023/10/25 07:06:04;;;;;;;2.17;1.97;;;13.80;98.50;;;;;;4960922;29;20461;-87
2023/10/25 07:08:33;;;;;;;3.03;2.30;;;13.80;98.40;;;;;;4937082;29;20443;-88
2023/10/25 07:10:59;;;;;;;2.50;2.13;;;13.80;98.40;;;;;;4934433;29;20470;-90
2023/10/25 07:13:29;;;;;;;2.50;2.30;;;13.80;98.40;;;;;;4947109;29;20434;-87
2023/10/25 07:15:58;;;;;;;1.97;1.87;;;13.80;98.30;;;;;;4968332;28;20448;-88
2023/10/25 07:18:31;;;;;;;2.70;2.50;;;13.90;98.40;;;;;;4951852;28;21025;-85
2023/10/25 07:20:59;;;;;;;4.63;2.30;;;13.80;98.40;;;;;;4937181;29;20484;-87
2023/10/25 07:23:25;;;;;;;2.30;2.00;;;13.80;98.40;;;;;;4968822;28;20920;-85
2023/10/25 07:25:52;;;;;;;3.70;2.30;;;13.80;98.30;;;;;;4936302;29;20489;-86
2023/10/25 07:28:18;;;;;;;2.47;2.27;;;13.80;98.40;;;;;;4951951;28;20479;-88
2023/10/25 07:30:46;;;;;;;4.03;2.40;;;13.80;98.40;;;;;;4952373;29;20470;-84
2023/10/25 07:33:13;;;;;;;2.20;2.10;;;13.80;98.40;;;;;;4947848;29;20431;-83
2023/10/25 07:35:41;;;;;;;3.40;2.23;;;13.80;98.40;;;;;;4939103;29;20445;-87
2023/10/25 07:38:12;;;;;;;3.10;2.47;;;13.80;98.40;;;;;;4944506;28;20449;-88
2023/10/25 07:40:40;;;;;;;2.90;2.10;;;13.80;98.30;;;;;;4919538;29;20446;-88
2023/10/25 07:43:05;;;;;;;2.33;2.13;;;13.80;98.40;;;;;;4919363;29;20872;-87
2023/10/25 07:45:31;;;;;;;2.80;2.03;;;13.80;98.40;;;;;;4915532;29;20550;-86
2023/10/25 07:47:57;;;;;;;2.20;2.10;;;13.80;98.40;;;;;;4942247;29;20497;-86
2023/10/25 07:50:25;;;;;;;3.67;2.27;;;13.80;98.40;;;;;;4950998;28;20212;-88
2023/10/25 07:52:54;;;;;;;2.30;2.17;;;13.80;98.40;;;;;;4950076;28;20869;-84
2023/10/25 07:55:20;;;;;;;2.80;2.23;;;13.80;98.40;;;;;;4945126;29;20452;-84
2023/10/25 07:57:48;;;;;;;2.50;2.27;;;13.80;98.40;;;;;;4931520;29;20438;-86
2023/10/25 08:00:16;;;;;;;4.90;2.40;;;13.80;98.40;;;;;;4949306;29;20950;-85
2023/10/25 08:02:42;;;;;;;3.33;2.10;;;13.80;98.40;;;;;;4950570;29;20229;-89
2023/10/25 08:05:10;;;;;;;3.10;2.23;;;13.80;98.40;;;;;;4935104;29;20533;-85
2023/10/25 08:07:36;;;;;;;2.60;2.37;;;13.80;98.30;;;;;;4949747;29;20589;-87
2023/10/25 08:10:08;;;;;;;4.23;2.37;;;13.80;98.40;;;;;;4950766;28;20482;-86
2023/10/25 08:12:37;;;;;;;2.13;2.00;;;13.80;98.40;;;;;;4951623;28;20493;-86
2023/10/25 08:15:05;;;;;;;3.33;2.23;;;13.80;98.40;;;;;;4931271;29;20447;-90
2023/10/25 08:17:34;;;;;;;2.33;2.13;;;13.80;98.40;;;;;;4945394;29;20564;-89
2023/10/25 08:19:59;;;;;;;3.90;2.17;;;13.80;98.40;;;;;;4942701;28;20971;-86
2023/10/25 08:22:25;;;;;;;3.30;2.20;;;13.80;98.40;;;;;;4924695;29;20458;-84
2023/10/25 08:24:51;;;;;;;2.10;1.90;;;13.80;98.40;;;;;;4955331;29;20538;-85
2023/10/25 08:27:20;;;;;;;2.43;2.17;;;13.80;98.40;;;;;;4943143;29;20461;-84
2023/10/25 08:29:48;;;;;;;3.20;2.17;;;13.80;98.40;;;;;;4935382;29;20502;-86
2023/10/25 08:32:14;;;;;;;2.47;2.27;;;13.80;98.40;;;;;;4953642;29;20760;-86
2023/10/25 08:34:45;;;;;;;2.70;2.30;;;13.80;98.40;;;;;;4938189;29;20423;-85
2023/10/25 08:37:13;;;;;;;2.73;2.03;;;13.80;98.40;;;;;;4946009;29;20505;-87
2023/10/25 08:39:39;;;;;;;2.77;2.00;;;13.80;98.40;;;;;;4930875;29;20446;-85
2023/10/25 08:42:09;;;;;;;2.73;2.53;;;13.80;98.40;;;;;;4938750;29;20472;-85
2023/10/25 08:44:39;;;;;;;2.77;2.33;;;13.80;98.40;;;;;;4954309;29;20459;-84
2023/10/25 08:47:05;;;;;;;3.00;2.17;;;13.80;98.40;;;;;;4955761;28;20442;-84
2023/10/25 08:49:33;;;;;;;2.20;1.97;;;13.80;98.70;;;;;;4937933;29;20529;-89
2023/10/25 08:52:04;;;;;;;2.70;2.23;;;13.80;98.40;;;;;;4938678;29;20441;-87
2023/10/25 08:54:30;;;;;;;3.70;2.00;;;13.80;98.50;;;;;;4922569;29;20492;-86
2023/10/25 08:56:56;;;;;;;2.17;1.97;;;13.80;98.60;;;;;;4954595;29;20488;-85
2023/10/25 08:59:22;;;;;;;2.60;2.10;;;13.80;98.60;;;;;;4953841;29;20205;-85
2023/10/25 09:01:51;;;;;;;2.77;2.23;;;13.80;98.60;;;;;;4941414;29;20494;-86
2023/10/25 09:04:17;;;;;;;4.30;2.37;;;13.80;98.60;;;;;;4953533;29;20442;-85
2023/10/25 09:06:45;;;;;;;2.27;2.13;;;13.80;98.50;;;;;;4955044;28;20449;-85
2023/10/25 09:09:16;;;;;;;1.97;1.80;;;13.80;98.60;;;;;;4921271;29;20772;-89
2023/10/25 09:11:44;;;;;;;3.03;2.00;;;13.80;98.60;;;;;;4939168;29;20442;-85
2023/10/25 09:14:19;;;;;;;2.83;2.37;;;13.80;98.60;;;;;;4957461;29;20458;-86
2023/10/25 09:16:50;;;;;;;2.83;2.53;;;13.80;98.60;;;;;;4958366;29;20443;-88
2023/10/25 09:19:19;;;;;;;2.80;2.13;;;13.80;98.60;;;;;;4938757;29;21152;-86
2023/10/25 09:21:45;;;;;;;1.73;1.63;;;13.90;98.60;;;;;;4954753;28;20426;-84
2023/10/25 09:24:11;;;;;;;3.87;2.27;;;13.80;98.60;;;;;;4954012;29;20512;-85
2023/10/25 09:26:41;;;;;;;2.03;1.83;;;13.80;98.60;;;;;;4953499;29;20456;-87
2023/10/25 09:29:09;;;;;;;2.00;1.87;;;13.90;98.70;;;;;;4960932;28;20485;-84
2023/10/25 09:31:38;;;;;;;3.30;1.80;;;13.80;98.60;;;;;;4955504;29;20442;-84
2023/10/25 09:34:09;;;;;;;2.07;1.97;;;13.90;98.60;;;;;;4953210;29;20431;-86
2023/10/25 09:36:40;;;;;;;2.30;2.10;;;13.80;98.60;;;;;;4939110;29;20806;-85
2023/10/25 09:39:08;;;;;;;2.40;2.20;;;13.90;98.80;;;;;;4923369;29;20557;-89
2023/10/25 09:41:38;;;;;;;3.70;2.00;;;13.80;98.70;;;;;;4922270;29;20524;-92
2023/10/25 09:44:15;;;;;;;2.47;2.10;;;13.90;98.80;;;;;;4931723;29;20775;-87
2023/10/25 09:46:45;;;;;;;2.23;2.10;;;13.90;99.20;;;;;;4955264;28;20434;-86
2023/10/25 09:49:20;;;;;;;2.00;1.90;;;13.80;98.80;;;;;;4943319;29;20558;-88
2023/10/25 09:52:11;;;;;;;2.20;2.00;;;13.90;98.90;;;;;;4937647;29;20447;-85
2023/10/25 09:54:47;;;;;;;2.60;2.03;;;13.90;98.90;;;;;;4935214;29;20441;-88
2023/10/25 09:57:13;;;;;;;2.23;2.03;;;13.80;98.90;;;;;;4922784;29;20473;-88
2023/10/25 09:59:43;;;;;;;2.20;2.00;;;13.80;98.90;;;;;;4930958;29;20514;-88
2023/10/25 10:02:20;;;;;;;2.50;2.30;;;13.80;99.00;;;;;;4923309;29;20455;-90
2023/10/25 10:05:00;;;;;;;2.97;1.87;;;13.80;99.10;;;;;;4940632;28;20456;-89
2023/10/25 10:07:47;;;;;;;1.97;1.87;;;13.80;99.10;;;;;;4922393;29;20454;-87
2023/10/25 10:10:39;;;;;;;2.37;2.17;;;13.90;99.10;;;;;;4937490;28;20492;-87
2023/10/25 10:13:16;;;;;;;2.00;1.80;;;13.90;99.20;;;;;;4952762;29;20446;-85
2023/10/25 10:15:58;;;;;;;3.50;2.00;;;13.80;99.10;;;;;;4921690;29;20464;-87
2023/10/25 10:18:28;;;;;;;2.60;2.40;;;13.90;99.20;;;;;;4930447;29;20438;-86
2023/10/25 10:21:00;;;;;;;2.90;2.17;;;13.80;99.20;;;;;;4938498;29;20457;-88
2023/10/25 10:23:38;;;;;;;2.63;2.43;;;13.90;99.20;;;;;;4927293;29;20435;-88
2023/10/25 10:26:05;;;;;;;2.17;2.07;;;13.90;99.30;;;;;;4942661;29;20431;-89
2023/10/25 10:28:39;;;;;;;2.37;2.17;;;13.80;99.30;;;;;;4943055;29;20401;-89
2023/10/25 10:31:06;;;;;;;2.33;2.13;;;13.90;99.40;;;;;;4944480;29;20481;-88
2023/10/25 10:33:47;;;;;;;3.83;2.40;;;13.90;99.50;;;;;;4944441;29;20738;-90
2023/10/25 10:36:27;;;;;;;3.67;2.17;;;13.90;99.40;;;;;;4948172;29;20477;-89
2023/10/25 10:39:12;;;;;;;2.90;2.17;;;13.90;99.50;;;;;;4969795;28;20519;-90
2023/10/25 10:41:40;;;;;;;1.90;1.80;;;13.90;99.40;;;;;;4957454;28;20458;-85
2023/10/25 10:44:08;;;;;;;3.43;1.90;;;13.90;99.40;;;;;;4943709;29;20459;-86
2023/10/25 10:46:58;;;;;;;2.70;2.03;;;13.90;99.50;;;;;;4960564;29;20444;-85
2023/10/25 10:49:28;;;;;;;2.23;2.00;;;13.90;99.50;;;;;;4959623;28;20484;-89
2023/10/25 10:51:55;;;;;;;2.30;2.10;;;13.90;99.50;;;;;;4922355;29;21081;-85
2023/10/25 10:54:25;;;;;;;4.60;2.00;;;13.90;99.60;;;;;;4933253;29;20451;-88
2023/10/25 10:56:57;;;;;;;2.10;1.87;;;13.90;99.50;;;;;;4949481;28;20944;-85
2023/10/25 10:59:28;;;;;;;2.10;1.90;;;13.90;99.50;;;;;;4967325;28;20449;-87
2023/10/25 11:01:57;;;;;;;7.87;2.20;;;13.90;99.60;;;;;;4936113;29;20442;-88
2023/10/25 11:04:23;;;;;;;2.60;2.20;;;13.90;99.80;;;;;;4951930;29;20427;-89
2023/10/25 11:06:52;;;;;;;2.47;2.27;;;13.90;99.60;;;;;;4936037;29;21244;-85
2023/10/25 11:09:21;;;;;;;2.10;2.00;;;13.90;99.60;;;;;;4936899;29;20490;-89
2023/10/25 11:11:50;;;;;;;2.53;2.33;;;13.90;99.60;;;;;;4928711;29;20482;-88
2023/10/25 11:14:16;;;;;;;3.37;2.33;;;13.90;99.60;;;;;;4941473;29;20460;-90
2023/10/25 11:16:41;;;;;;;2.67;2.10;;;13.90;99.80;;;;;;4948859;29;20960;-88
2023/10/25 11:19:10;;;;;;;2.27;1.87;;;13.90;99.90;;;;;;4944208;29;20426;-85
2023/10/25 11:21:38;;;;;;;3.27;2.33;;;13.90;99.80;;;;;;4936646;29;20485;-90
2023/10/25 11:24:07;;;;;;;2.37;2.17;;;13.90;99.80;;;;;;4919455;29;20446;-94
2023/10/25 11:26:37;;;;;;;2.80;2.60;;;13.90;99.80;;;;;;4950719;28;20462;-88
2023/10/25 11:29:03;;;;;;;2.43;2.27;;;13.90;99.80;;;;;;4945730;29;20475;-86
2023/10/25 11:31:32;;;;;;;2.43;2.23;;;13.90;99.80;;;;;;4946357;29;21001;-87
2023/10/25 11:34:00;;;;;;;2.83;2.17;;;13.90;99.80;;;;;;4925003;29;20534;-89
2023/10/25 11:36:30;;;;;;;2.40;2.20;;;13.90;99.80;;;;;;4963925;28;20478;-89
2023/10/25 11:39:07;;;;;;;2.73;2.50;;;13.90;99.90;;;;;;4954286;29;20482;-91
2023/10/25 11:41:33;;;;;;;3.00;2.23;;;14.00;99.90;;;;;;4955360;28;20434;-90
2023/10/25 11:44:02;;;;;;;2.67;2.43;;;13.90;99.90;;;;;;4945096;29;20450;-87
2023/10/25 11:46:37;;;;;;;3.80;2.40;;;14.00;99.90;;;;;;4944510;29;20470;-90
2023/10/25 11:49:04;;;;;;;3.67;2.67;;;14.00;99.90;;;;;;4949768;29;20475;-88
2023/10/25 11:51:34;;;;;;;2.50;2.30;;;13.90;99.90;;;;;;4943835;29;20447;-89
2023/10/25 11:54:02;;;;;;;2.83;2.10;;;14.00;99.90;;;;;;4951090;29;20449;-90
2023/10/25 11:56:30;;;;;;;2.33;2.13;;;14.00;99.90;;;;;;4950730;29;20453;-87
2023/10/25 11:58:56;;;;;;;2.43;2.20;;;14.00;99.90;;;;;;4934141;29;20439;-86
2023/10/25 12:01:22;;;;;;;2.40;2.20;;;14.00;99.90;;;;;;4934006;29;20469;-86
2023/10/25 12:03:48;;;;;;;2.90;2.37;;;14.00;99.90;;;;;;4949672;28;20435;-88
2023/10/25 12:06:15;;;;;;;3.13;2.60;;;14.00;99.90;;;;;;4950782;29;20481;-87
2023/10/25 12:08:44;;;;;;;3.83;1.90;;;14.00;99.90;;;;;;4939817;28;20954;-92
2023/10/25 12:11:10;;;;;;;2.53;2.40;;;14.00;99.90;;;;;;4943958;28;20436;-92
2023/10/25 12:13:41;;;;;;;3.13;2.77;;;14.00;99.90;;;;;;4923247;29;20447;-90
2023/10/25 12:16:08;;;;;;;2.40;2.20;;;14.00;99.90;;;;;;4955325;29;20430;-89
2023/10/25 12:18:36;;;;;;;3.50;2.60;;;14.00;99.90;;;;;;4950945;28;20480;-89
2023/10/25 12:21:04;;;;;;;3.30;2.50;;;14.00;99.90;;;;;;4935115;29;20447;-90
2023/10/25 12:23:31;;;;;;;2.90;2.43;;;14.00;99.90;;;;;;4967012;28;20438;-87
2023/10/25 12:25:57;;;;;;;4.33;2.60;;;14.00;99.90;;;;;;4951608;28;20486;-90
2023/10/25 12:28:23;;;;;;;4.03;3.73;;;14.00;99.90;;;;;;4950713;28;20447;-87
2023/10/25 12:30:50;;;;;;;2.63;2.50;;;14.00;99.90;;;;;;4952519;28;20550;-93
2023/10/25 12:33:16;;;;;;;3.10;2.80;;;14.00;99.90;;;;;;4950897;29;20447;-92
2023/10/25 12:35:42;;;;;;;2.80;2.60;;;14.00;99.90;;;;;;4937251;29;20429;-91
2023/10/25 12:38:09;;;;;;;2.67;2.47;;;14.00;99.90;;;;;;4950544;29;20441;-88
2023/10/25 12:40:35;;;;;;;2.80;2.47;;;14.00;99.90;;;;;;4951231;29;20451;-90
2023/10/25 12:43:02;;;;;;;3.50;3.20;;;14.00;99.90;;;;;;4950287;29;20513;-88
2023/10/25 12:45:28;;;;;;;4.60;2.80;;;14.00;99.90;;;;;;4950790;29;20770;-88
2023/10/25 12:47:57;;;;;;;2.10;2.00;;;14.00;99.90;;;;;;4952493;29;20520;-92
2023/10/25 12:50:24;;;;;;;2.90;2.70;;;14.00;99.90;;;;;;4934575;29;20525;-91
2023/10/25 12:52:50;;;;;;;2.67;2.47;;;14.00;99.90;;;;;;4943762;29;20566;-93
2023/10/25 12:55:16;;;;;;;4.63;2.77;;;14.00;99.90;;;;;;4966546;28;20457;-88